sensor_id;sensor_type;location;lat;lon;timestamp;pressure;altitude;pressure_sealevel;temperature;humidity
64679;BME280;51094;53.864;27.676;2022-08-04T00:00:03;99687.28;;;18.18;66.22
64679;BME280;51094;53.864;27.676;2022-08-04T00:02:51;99654.53;;;18.20;66.50
64679;BME280;51094;53.864;27.676;2022-08-04T00:05:29;99660.63;;;18.21;66.38
64679;BME280;51094;53.864;27.676;2022-08-04T00:10:57;99650.78;;;18.23;66.36
64679;BME280;51094;53.864;27.676;2022-08-04T00:13:27;99641.22;;;18.04;65.88
64679;BME280;51094;53.864;27.676;2022-08-04T00:15:58;99659.66;;;18.22;66.27
64679;BME280;51094;53.864;27.676;2022-08-04T00:18:55;99652.09;;;18.19;66.60
64679;BME280;51094;53.864;27.676;2022-08-04T00:21:24;99620.75;;;17.98;66.67
64679;BME280;51094;53.864;27.676;2022-08-04T00:23:53;99653.19;;;18.16;66.61
64679;BME280;51094;53.864;27.676;2022-08-04T00:26:38;99658.59;;;18.15;66.69
64679;BME280;51094;53.864;27.676;2022-08-04T00:29:05;99596.53;;;17.67;66.90
64679;BME280;51094;53.864;27.676;2022-08-04T00:31:32;99658.50;;;18.07;66.88
64679;BME280;51094;53.864;27.676;2022-08-04T00:34:19;99520.31;;;17.20;66.82
64679;BME280;51094;53.864;27.676;2022-08-04T00:36:46;99474.31;;;16.70;66.97
64679;BME280;51094;53.864;27.676;2022-08-04T00:39:15;99485.13;;;16.94;67.28
64679;BME280;51094;53.864;27.676;2022-08-04T00:49:58;99661.63;;;17.92;67.52
64679;BME280;51094;53.864;27.676;2022-08-04T00:53:12;99601.53;;;17.51;67.50
64679;BME280;51094;53.864;27.676;2022-08-04T01:04:02;99661.22;;;17.87;67.76
64679;BME280;51094;53.864;27.676;2022-08-04T01:06:35;99551.63;;;17.04;67.82
64679;BME280;51094;53.864;27.676;2022-08-04T01:09:23;99626.56;;;17.74;67.71
64679;BME280;51094;53.864;27.676;2022-08-04T01:12:12;99657.50;;;17.80;68.01
64679;BME280;51094;53.864;27.676;2022-08-04T01:17:47;99686.94;;;17.66;67.95
64679;BME280;51094;53.864;27.676;2022-08-04T01:20:16;99654.97;;;17.42;68.28
64679;BME280;51094;53.864;27.676;2022-08-04T01:26:01;99676.19;;;17.77;68.04
64679;BME280;51094;53.864;27.676;2022-08-04T01:29:02;99679.38;;;17.81;68.20
64679;BME280;51094;53.864;27.676;2022-08-04T01:31:58;99671.63;;;17.79;68.17
64679;BME280;51094;53.864;27.676;2022-08-04T01:34:29;99664.72;;;17.78;68.25
64679;BME280;51094;53.864;27.676;2022-08-04T01:37:02;99698.53;;;17.73;68.07
64679;BME280;51094;53.864;27.676;2022-08-04T01:39:34;99678.31;;;17.74;68.12
64679;BME280;51094;53.864;27.676;2022-08-04T01:42:10;99676.66;;;17.73;68.60
64679;BME280;51094;53.864;27.676;2022-08-04T01:44:48;99681.09;;;17.62;68.16
64679;BME280;51094;53.864;27.676;2022-08-04T01:47:18;99636.72;;;17.40;68.50
64679;BME280;51094;53.864;27.676;2022-08-04T01:49:48;99409.06;;;15.89;69.41
64679;BME280;51094;53.864;27.676;2022-08-04T01:52:17;99662.31;;;17.48;68.93
64679;BME280;51094;53.864;27.676;2022-08-04T01:54:45;99683.63;;;17.45;69.61
64679;BME280;51094;53.864;27.676;2022-08-04T01:57:14;99674.50;;;17.39;69.89
64679;BME280;51094;53.864;27.676;2022-08-04T02:00:03;99423.13;;;15.79;69.60
64679;BME280;51094;53.864;27.676;2022-08-04T02:02:32;99585.94;;;16.93;69.66
64679;BME280;51094;53.864;27.676;2022-08-04T02:04:59;99576.94;;;16.95;69.51
64679;BME280;51094;53.864;27.676;2022-08-04T02:07:41;99597.66;;;17.08;69.53
64679;BME280;51094;53.864;27.676;2022-08-04T02:10:27;99659.31;;;17.23;69.24
64679;BME280;51094;53.864;27.676;2022-08-04T02:13:53;99665.34;;;17.53;69.21
64679;BME280;51094;53.864;27.676;2022-08-04T02:16:21;99622.94;;;17.28;68.96
64679;BME280;51094;53.864;27.676;2022-08-04T02:21:24;99656.06;;;17.49;69.08
64679;BME280;51094;53.864;27.676;2022-08-04T02:23:58;99694.53;;;17.50;69.14
64679;BME280;51094;53.864;27.676;2022-08-04T02:26:28;99660.09;;;17.43;69.15
64679;BME280;51094;53.864;27.676;2022-08-04T02:29:05;99726.53;;;17.26;69.41
64679;BME280;51094;53.864;27.676;2022-08-04T02:32:06;99655.13;;;17.40;69.60
64679;BME280;51094;53.864;27.676;2022-08-04T02:37:08;99622.53;;;17.23;69.89
64679;BME280;51094;53.864;27.676;2022-08-04T02:39:41;99678.63;;;17.42;69.94
64679;BME280;51094;53.864;27.676;2022-08-04T02:42:15;99651.56;;;17.32;69.89
64679;BME280;51094;53.864;27.676;2022-08-04T02:44:42;99569.50;;;16.52;70.00
64679;BME280;51094;53.864;27.676;2022-08-04T02:47:09;99696.94;;;17.24;70.47
64679;BME280;51094;53.864;27.676;2022-08-04T02:49:37;99507.91;;;16.18;70.08
64679;BME280;51094;53.864;27.676;2022-08-04T02:52:08;99451.00;;;15.70;70.27
64679;BME280;51094;53.864;27.676;2022-08-04T02:54:39;99603.19;;;16.18;70.67
64679;BME280;51094;53.864;27.676;2022-08-04T02:57:08;99580.41;;;16.48;70.27
64679;BME280;51094;53.864;27.676;2022-08-04T02:59:55;99543.53;;;16.30;70.54
64679;BME280;51094;53.864;27.676;2022-08-04T03:02:39;99631.72;;;16.81;70.41
64679;BME280;51094;53.864;27.676;2022-08-04T03:05:16;99658.47;;;17.33;70.33
64679;BME280;51094;53.864;27.676;2022-08-04T03:07:58;99588.31;;;16.86;70.18
64679;BME280;51094;53.864;27.676;2022-08-04T03:13:39;99612.31;;;17.20;69.68
64679;BME280;51094;53.864;27.676;2022-08-04T03:30:10;99660.47;;;17.58;69.48
64679;BME280;51094;53.864;27.676;2022-08-04T03:47:37;99669.19;;;17.58;69.07
64679;BME280;51094;53.864;27.676;2022-08-04T03:59:17;99672.69;;;17.96;68.91
64679;BME280;51094;53.864;27.676;2022-08-04T04:02:19;99699.34;;;18.11;68.95
64679;BME280;51094;53.864;27.676;2022-08-04T04:19:31;99644.34;;;18.17;67.86
64679;BME280;51094;53.864;27.676;2022-08-04T04:39:31;99775.78;;;19.01;66.55
64679;BME280;51094;53.864;27.676;2022-08-04T04:47:52;99703.53;;;19.12;66.72
64679;BME280;51094;53.864;27.676;2022-08-04T04:50:50;99707.06;;;19.20;66.64
64679;BME280;51094;53.864;27.676;2022-08-04T04:59:00;99469.41;;;17.94;66.00
64679;BME280;51094;53.864;27.676;2022-08-04T05:06:50;99698.59;;;19.78;65.30
64679;BME280;51094;53.864;27.676;2022-08-04T05:09:36;99762.16;;;19.93;65.33
64679;BME280;51094;53.864;27.676;2022-08-04T05:12:24;99720.84;;;20.10;64.72
64679;BME280;51094;53.864;27.676;2022-08-04T05:15:15;99731.81;;;20.23;64.38
64679;BME280;51094;53.864;27.676;2022-08-04T05:17:46;99706.44;;;20.30;64.27
64679;BME280;51094;53.864;27.676;2022-08-04T05:20:22;99702.53;;;20.42;64.11
64679;BME280;51094;53.864;27.676;2022-08-04T05:23:18;99559.75;;;19.43;64.00
64679;BME280;51094;53.864;27.676;2022-08-04T05:25:53;99669.50;;;20.38;63.77
64679;BME280;51094;53.864;27.676;2022-08-04T05:28:35;99680.28;;;20.61;64.14
64679;BME280;51094;53.864;27.676;2022-08-04T05:31:16;99641.94;;;20.41;62.78
64679;BME280;51094;53.864;27.676;2022-08-04T05:33:53;99571.03;;;20.04;63.40
64679;BME280;51094;53.864;27.676;2022-08-04T05:36:29;99727.25;;;21.00;63.10
64679;BME280;51094;53.864;27.676;2022-08-04T05:39:14;99706.94;;;21.08;63.22
64679;BME280;51094;53.864;27.676;2022-08-04T05:41:43;99676.19;;;20.99;63.38
64679;BME280;51094;53.864;27.676;2022-08-04T05:44:21;99665.13;;;20.96;62.90
64679;BME280;51094;53.864;27.676;2022-08-04T05:46:51;99625.28;;;20.81;63.24
64679;BME280;51094;53.864;27.676;2022-08-04T05:49:25;99637.03;;;21.03;62.67
64679;BME280;51094;53.864;27.676;2022-08-04T05:51:58;99726.78;;;21.53;62.69
64679;BME280;51094;53.864;27.676;2022-08-04T05:54:27;99676.38;;;21.38;62.97
64679;BME280;51094;53.864;27.676;2022-08-04T05:56:55;99671.06;;;21.38;62.73
64679;BME280;51094;53.864;27.676;2022-08-04T05:59:23;99698.28;;;21.71;63.04
64679;BME280;51094;53.864;27.676;2022-08-04T06:01:54;99718.63;;;21.87;62.48
64679;BME280;51094;53.864;27.676;2022-08-04T06:04:30;99705.53;;;22.02;62.09
64679;BME280;51094;53.864;27.676;2022-08-04T06:06:58;99542.34;;;21.06;62.21
64679;BME280;51094;53.864;27.676;2022-08-04T06:09:25;99599.81;;;21.45;61.85
64679;BME280;51094;53.864;27.676;2022-08-04T06:11:52;99575.69;;;21.32;61.57
64679;BME280;51094;53.864;27.676;2022-08-04T06:14:37;99712.72;;;22.24;61.52
64679;BME280;51094;53.864;27.676;2022-08-04T06:17:06;99719.94;;;22.38;61.87
64679;BME280;51094;53.864;27.676;2022-08-04T06:19:54;99625.09;;;21.95;60.97
64679;BME280;51094;53.864;27.676;2022-08-04T06:22:43;99572.38;;;21.77;60.20
64679;BME280;51094;53.864;27.676;2022-08-04T06:25:15;99717.47;;;22.68;60.49
64679;BME280;51094;53.864;27.676;2022-08-04T06:27:47;99717.09;;;22.71;60.69
64679;BME280;51094;53.864;27.676;2022-08-04T06:30:15;99785.03;;;22.80;60.46
64679;BME280;51094;53.864;27.676;2022-08-04T06:32:45;99636.38;;;22.28;60.10
64679;BME280;51094;53.864;27.676;2022-08-04T06:35:16;99661.53;;;22.54;60.39
64679;BME280;51094;53.864;27.676;2022-08-04T06:37:47;99586.09;;;22.19;60.32
64679;BME280;51094;53.864;27.676;2022-08-04T06:40:19;99728.06;;;23.21;59.94
64679;BME280;51094;53.864;27.676;2022-08-04T06:43:00;99601.00;;;22.66;60.62
64679;BME280;51094;53.864;27.676;2022-08-04T06:45:27;99717.38;;;23.67;59.40
64679;BME280;51094;53.864;27.676;2022-08-04T06:47:55;99718.13;;;23.76;58.67
64679;BME280;51094;53.864;27.676;2022-08-04T06:50:22;99553.94;;;22.68;58.55
64679;BME280;51094;53.864;27.676;2022-08-04T06:53:09;99725.91;;;23.77;58.63
64679;BME280;51094;53.864;27.676;2022-08-04T06:55:36;99713.44;;;23.93;58.49
64679;BME280;51094;53.864;27.676;2022-08-04T06:58:05;99653.84;;;23.13;57.69
64679;BME280;51094;53.864;27.676;2022-08-04T07:00:34;99693.28;;;23.83;57.24
64679;BME280;51094;53.864;27.676;2022-08-04T07:03:02;99605.22;;;23.36;57.19
64679;BME280;51094;53.864;27.676;2022-08-04T07:05:30;99678.00;;;24.00;56.71
64679;BME280;51094;53.864;27.676;2022-08-04T07:07:57;99723.44;;;24.35;56.59
64679;BME280;51094;53.864;27.676;2022-08-04T07:10:28;99572.84;;;23.55;56.21
64679;BME280;51094;53.864;27.676;2022-08-04T07:12:56;99717.34;;;24.56;55.79
64679;BME280;51094;53.864;27.676;2022-08-04T07:15:24;99651.84;;;24.33;55.69
64679;BME280;51094;53.864;27.676;2022-08-04T07:17:52;99718.63;;;24.81;54.99
64679;BME280;51094;53.864;27.676;2022-08-04T07:20:19;99751.44;;;24.88;53.93
64679;BME280;51094;53.864;27.676;2022-08-04T07:23:15;99712.34;;;25.03;54.25
64679;BME280;51094;53.864;27.676;2022-08-04T07:25:55;99522.75;;;24.03;54.52
64679;BME280;51094;53.864;27.676;2022-08-04T07:28:38;99709.91;;;25.30;53.66
64679;BME280;51094;53.864;27.676;2022-08-04T07:31:05;99587.91;;;24.56;52.78
64679;BME280;51094;53.864;27.676;2022-08-04T07:33:33;99709.53;;;25.33;52.94
64679;BME280;51094;53.864;27.676;2022-08-04T07:36:00;99678.31;;;25.20;52.88
64679;BME280;51094;53.864;27.676;2022-08-04T07:38:38;99582.75;;;24.76;52.51
64679;BME280;51094;53.864;27.676;2022-08-04T07:41:23;99646.41;;;25.27;51.95
64679;BME280;51094;53.864;27.676;2022-08-04T07:44:08;99576.22;;;25.00;51.22
64679;BME280;51094;53.864;27.676;2022-08-04T07:46:36;99705.72;;;25.98;51.66
64679;BME280;51094;53.864;27.676;2022-08-04T07:49:03;99712.09;;;26.10;50.49
64679;BME280;51094;53.864;27.676;2022-08-04T07:51:31;99705.59;;;26.19;50.74
64679;BME280;51094;53.864;27.676;2022-08-04T07:53:58;99658.34;;;25.93;50.76
64679;BME280;51094;53.864;27.676;2022-08-04T07:56:26;99714.44;;;26.26;51.68
64679;BME280;51094;53.864;27.676;2022-08-04T07:58:54;99688.97;;;26.17;51.46
64679;BME280;51094;53.864;27.676;2022-08-04T08:01:24;99710.03;;;26.40;50.11
64679;BME280;51094;53.864;27.676;2022-08-04T08:03:54;99633.78;;;25.98;51.61
64679;BME280;51094;53.864;27.676;2022-08-04T08:06:22;99710.31;;;26.71;50.34
64679;BME280;51094;53.864;27.676;2022-08-04T08:09:00;99619.06;;;26.15;50.14
64679;BME280;51094;53.864;27.676;2022-08-04T08:11:45;99712.50;;;26.41;50.03
64679;BME280;51094;53.864;27.676;2022-08-04T08:14:35;99717.13;;;26.94;49.90
64679;BME280;51094;53.864;27.676;2022-08-04T08:17:03;99698.22;;;26.89;47.86
64679;BME280;51094;53.864;27.676;2022-08-04T08:19:31;99601.72;;;26.32;49.04
64679;BME280;51094;53.864;27.676;2022-08-04T08:21:58;99696.84;;;27.06;49.81
64679;BME280;51094;53.864;27.676;2022-08-04T08:24:35;99715.75;;;27.24;49.41
64679;BME280;51094;53.864;27.676;2022-08-04T08:27:03;99715.56;;;27.26;49.15
64679;BME280;51094;53.864;27.676;2022-08-04T08:29:32;99646.47;;;26.57;48.83
64679;BME280;51094;53.864;27.676;2022-08-04T08:31:59;99716.78;;;27.16;50.01
64679;BME280;51094;53.864;27.676;2022-08-04T08:34:34;99713.28;;;27.49;48.75
64679;BME280;51094;53.864;27.676;2022-08-04T08:49:45;99714.94;;;28.86;45.09
64679;BME280;51094;53.864;27.676;2022-08-04T09:01:48;99720.31;;;29.42;43.11
64679;BME280;51094;53.864;27.676;2022-08-04T09:13:03;99488.84;;;28.07;43.51
64679;BME280;51094;53.864;27.676;2022-08-04T09:15:40;99728.28;;;29.17;42.97
64679;BME280;51094;53.864;27.676;2022-08-04T09:18:20;99720.50;;;28.77;43.37
64679;BME280;51094;53.864;27.676;2022-08-04T09:20:53;99665.41;;;28.32;44.70
64679;BME280;51094;53.864;27.676;2022-08-04T09:23:34;99599.72;;;27.98;45.29
64679;BME280;51094;53.864;27.676;2022-08-04T09:26:20;99717.25;;;28.31;44.68
64679;BME280;51094;53.864;27.676;2022-08-04T09:28:55;99732.53;;;28.04;45.00
64679;BME280;51094;53.864;27.676;2022-08-04T09:31:34;99743.88;;;27.86;45.44
64679;BME280;51094;53.864;27.676;2022-08-04T09:35:00;99718.38;;;27.83;45.86
64679;BME280;51094;53.864;27.676;2022-08-04T09:38:04;99641.59;;;27.33;46.30
64679;BME280;51094;53.864;27.676;2022-08-04T09:41:27;99726.16;;;27.98;46.06
64679;BME280;51094;53.864;27.676;2022-08-04T09:47:13;99674.41;;;27.73;46.06
64679;BME280;51094;53.864;27.676;2022-08-04T09:50:03;99713.66;;;27.86;46.48
64679;BME280;51094;53.864;27.676;2022-08-04T09:55:33;99714.31;;;27.48;46.61
64679;BME280;51094;53.864;27.676;2022-08-04T09:58:45;99704.16;;;28.03;46.50
64679;BME280;51094;53.864;27.676;2022-08-04T10:01:18;99704.47;;;28.71;46.39
64679;BME280;51094;53.864;27.676;2022-08-04T10:03:51;99729.53;;;29.46;44.84
64679;BME280;51094;53.864;27.676;2022-08-04T10:06:33;99652.44;;;29.66;42.04
64679;BME280;51094;53.864;27.676;2022-08-04T10:09:20;99756.59;;;30.06;42.02
64679;BME280;51094;53.864;27.676;2022-08-04T10:15:05;99702.06;;;30.30;40.65
64679;BME280;51094;53.864;27.676;2022-08-04T10:20:50;99703.81;;;31.15;38.98
64679;BME280;51094;53.864;27.676;2022-08-04T10:23:45;99676.34;;;31.71;37.76
64679;BME280;51094;53.864;27.676;2022-08-04T10:26:34;99606.47;;;31.71;38.13
64679;BME280;51094;53.864;27.676;2022-08-04T10:31:56;99692.69;;;32.04;36.76
64679;BME280;51094;53.864;27.676;2022-08-04T10:34:31;99673.31;;;31.67;36.82
64679;BME280;51094;53.864;27.676;2022-08-04T10:37:08;99634.28;;;31.41;37.75
64679;BME280;51094;53.864;27.676;2022-08-04T10:39:51;99679.75;;;32.18;37.51
64679;BME280;51094;53.864;27.676;2022-08-04T10:42:45;99690.44;;;32.98;36.56
64679;BME280;51094;53.864;27.676;2022-08-04T10:45:16;99672.97;;;33.51;34.59
64679;BME280;51094;53.864;27.676;2022-08-04T10:47:55;99581.22;;;33.08;33.70
64679;BME280;51094;53.864;27.676;2022-08-04T10:50:27;99604.69;;;33.67;34.21
64679;BME280;51094;53.864;27.676;2022-08-04T10:53:00;99573.66;;;33.87;33.00
64679;BME280;51094;53.864;27.676;2022-08-04T10:55:49;99665.22;;;34.69;32.47
64679;BME280;51094;53.864;27.676;2022-08-04T10:58:48;99678.75;;;35.33;30.87
64679;BME280;51094;53.864;27.676;2022-08-04T11:01:23;99651.88;;;35.63;29.81
64679;BME280;51094;53.864;27.676;2022-08-04T11:04:20;99642.31;;;35.88;29.30
64679;BME280;51094;53.864;27.676;2022-08-04T11:06:54;99604.47;;;36.08;29.44
64679;BME280;51094;53.864;27.676;2022-08-04T11:09:21;99544.44;;;36.52;27.86
64679;BME280;51094;53.864;27.676;2022-08-04T11:11:53;99733.00;;;37.90;28.08
64679;BME280;51094;53.864;27.676;2022-08-04T11:14:40;99664.09;;;37.71;26.73
64679;BME280;51094;53.864;27.676;2022-08-04T11:17:17;99664.75;;;37.17;27.53
64679;BME280;51094;53.864;27.676;2022-08-04T11:19:48;99603.19;;;37.27;26.79
64679;BME280;51094;53.864;27.676;2022-08-04T11:22:25;99461.47;;;37.61;24.78
64679;BME280;51094;53.864;27.676;2022-08-04T11:25:27;99666.19;;;39.50;24.49
64679;BME280;51094;53.864;27.676;2022-08-04T11:28:06;99670.34;;;40.14;24.02
64679;BME280;51094;53.864;27.676;2022-08-04T11:30:58;99663.63;;;40.82;22.06
64679;BME280;51094;53.864;27.676;2022-08-04T11:36:22;99653.63;;;41.10;21.75
64679;BME280;51094;53.864;27.676;2022-08-04T11:44:31;99658.72;;;42.48;19.84
64679;BME280;51094;53.864;27.676;2022-08-04T11:47:04;99655.16;;;40.08;22.42
64679;BME280;51094;53.864;27.676;2022-08-04T11:49:41;99650.31;;;37.57;25.30
64679;BME280;51094;53.864;27.676;2022-08-04T11:52:23;99650.91;;;35.80;28.59
64679;BME280;51094;53.864;27.676;2022-08-04T11:54:51;99638.34;;;34.52;29.48
64679;BME280;51094;53.864;27.676;2022-08-04T11:57:21;99591.97;;;33.24;30.41
64679;BME280;51094;53.864;27.676;2022-08-04T12:00:04;99579.63;;;39.00;24.53
64679;BME280;51094;53.864;27.676;2022-08-04T12:05:29;99570.69;;;45.80;17.39
64679;BME280;51094;53.864;27.676;2022-08-04T12:08:05;99659.69;;;48.81;15.74
64679;BME280;51094;53.864;27.676;2022-08-04T12:13:31;99635.78;;;42.36;19.38
64679;BME280;51094;53.864;27.676;2022-08-04T12:19:06;99289.72;;;45.58;14.91
64679;BME280;51094;53.864;27.676;2022-08-04T12:21:44;99657.81;;;50.15;13.32
64679;BME280;51094;53.864;27.676;2022-08-04T12:24:40;99638.25;;;50.85;11.95
64679;BME280;51094;53.864;27.676;2022-08-04T12:27:15;99569.31;;;50.99;12.49
64679;BME280;51094;53.864;27.676;2022-08-04T12:29:44;99654.97;;;52.50;10.44
64679;BME280;51094;53.864;27.676;2022-08-04T12:32:37;99647.00;;;52.79;10.49
64679;BME280;51094;53.864;27.676;2022-08-04T12:35:19;99613.16;;;53.10;9.78
64679;BME280;51094;53.864;27.676;2022-08-04T12:45:59;99631.38;;;54.42;9.23
64679;BME280;51094;53.864;27.676;2022-08-04T12:48:26;99548.44;;;53.75;9.14
64679;BME280;51094;53.864;27.676;2022-08-04T12:50:55;99564.72;;;47.58;13.21
64679;BME280;51094;53.864;27.676;2022-08-04T12:53:31;99512.69;;;43.86;16.74
64679;BME280;51094;53.864;27.676;2022-08-04T12:55:59;99411.38;;;40.57;19.16
64679;BME280;51094;53.864;27.676;2022-08-04T12:58:32;99493.44;;;39.48;21.19
64679;BME280;51094;53.864;27.676;2022-08-04T13:04:14;99552.53;;;45.37;16.05
64679;BME280;51094;53.864;27.676;2022-08-04T13:06:43;99466.09;;;44.29;16.12
64679;BME280;51094;53.864;27.676;2022-08-04T13:09:19;99501.81;;;46.18;15.25
64679;BME280;51094;53.864;27.676;2022-08-04T13:11:55;99559.72;;;47.88;13.83
64679;BME280;51094;53.864;27.676;2022-08-04T13:14:30;99607.78;;;44.63;16.80
64679;BME280;51094;53.864;27.676;2022-08-04T13:16:59;99516.00;;;42.91;17.61
64679;BME280;51094;53.864;27.676;2022-08-04T13:19:28;99538.38;;;40.39;20.59
64679;BME280;51094;53.864;27.676;2022-08-04T13:21:56;99564.22;;;38.61;23.61
64679;BME280;51094;53.864;27.676;2022-08-04T13:24:30;99588.78;;;37.37;25.66
64679;BME280;51094;53.864;27.676;2022-08-04T13:32:57;99557.53;;;33.48;30.69
64679;BME280;51094;53.864;27.676;2022-08-04T13:35:26;99576.47;;;32.98;31.94
64679;BME280;51094;53.864;27.676;2022-08-04T13:38:16;99458.53;;;31.83;33.09
64679;BME280;51094;53.864;27.676;2022-08-04T13:40:43;99550.59;;;32.97;32.77
64679;BME280;51094;53.864;27.676;2022-08-04T13:43:28;99553.50;;;32.90;32.20
64679;BME280;51094;53.864;27.676;2022-08-04T13:46:19;99499.63;;;32.23;33.35
64679;BME280;51094;53.864;27.676;2022-08-04T13:48:58;99211.91;;;30.14;34.00
64679;BME280;51094;53.864;27.676;2022-08-04T13:52:24;99517.66;;;32.11;33.42
64679;BME280;51094;53.864;27.676;2022-08-04T13:54:46;99547.25;;;33.06;32.27
64679;BME280;51094;53.864;27.676;2022-08-04T13:57:28;99543.56;;;33.51;31.07
64679;BME280;51094;53.864;27.676;2022-08-04T14:00:06;99561.50;;;32.85;32.59
64679;BME280;51094;53.864;27.676;2022-08-04T14:02:45;99545.78;;;32.65;32.36
64679;BME280;51094;53.864;27.676;2022-08-04T14:05:16;99517.66;;;32.23;34.80
64679;BME280;51094;53.864;27.676;2022-08-04T14:08:04;99411.19;;;31.25;34.56
64679;BME280;51094;53.864;27.676;2022-08-04T14:10:32;99484.97;;;31.46;34.20
64679;BME280;51094;53.864;27.676;2022-08-04T14:13:02;99550.59;;;31.61;34.83
64679;BME280;51094;53.864;27.676;2022-08-04T14:15:32;99550.78;;;31.31;36.14
64679;BME280;51094;53.864;27.676;2022-08-04T14:18:25;99209.44;;;28.59;36.18
64679;BME280;51094;53.864;27.676;2022-08-04T14:26:33;99544.84;;;30.29;38.01
64679;BME280;51094;53.864;27.676;2022-08-04T14:29:11;99552.34;;;30.51;38.12
64679;BME280;51094;53.864;27.676;2022-08-04T14:32:02;99535.53;;;30.32;38.25
64679;BME280;51094;53.864;27.676;2022-08-04T14:34:38;99565.50;;;30.40;38.61
64679;BME280;51094;53.864;27.676;2022-08-04T14:37:08;99564.84;;;30.15;38.90
64679;BME280;51094;53.864;27.676;2022-08-04T14:39:50;99533.59;;;29.91;38.39
64679;BME280;51094;53.864;27.676;2022-08-04T14:42:39;99487.44;;;29.59;39.38
64679;BME280;51094;53.864;27.676;2022-08-04T14:45:07;99548.03;;;29.90;39.56
64679;BME280;51094;53.864;27.676;2022-08-04T14:47:41;99324.88;;;27.95;39.75
64679;BME280;51094;53.864;27.676;2022-08-04T14:50:18;99436.75;;;28.66;41.01
64679;BME280;51094;53.864;27.676;2022-08-04T14:52:45;99563.25;;;29.23;41.33
64679;BME280;51094;53.864;27.676;2022-08-04T14:57:42;99555.19;;;29.04;41.89
64679;BME280;51094;53.864;27.676;2022-08-04T15:00:34;99428.69;;;28.23;42.33
64679;BME280;51094;53.864;27.676;2022-08-04T15:03:07;99430.50;;;28.29;42.32
64679;BME280;51094;53.864;27.676;2022-08-04T15:05:40;99544.78;;;29.14;41.51
64679;BME280;51094;53.864;27.676;2022-08-04T15:08:27;99550.91;;;29.22;41.64
64679;BME280;51094;53.864;27.676;2022-08-04T15:10:58;99494.84;;;28.84;42.89
64679;BME280;51094;53.864;27.676;2022-08-04T15:13:29;99540.75;;;29.05;41.95
64679;BME280;51094;53.864;27.676;2022-08-04T15:15:57;99543.41;;;28.87;43.04
64679;BME280;51094;53.864;27.676;2022-08-04T15:18:34;99542.34;;;28.63;42.62
64679;BME280;51094;53.864;27.676;2022-08-04T15:21:01;99451.69;;;27.99;42.54
64679;BME280;51094;53.864;27.676;2022-08-04T15:23:31;99328.28;;;27.21;42.53
64679;BME280;51094;53.864;27.676;2022-08-04T15:26:08;99392.75;;;27.62;43.35
64679;BME280;51094;53.864;27.676;2022-08-04T15:28:35;99539.97;;;28.55;42.73
64679;BME280;51094;53.864;27.676;2022-08-04T15:31:04;99413.25;;;27.68;43.18
64679;BME280;51094;53.864;27.676;2022-08-04T15:33:54;99456.78;;;28.07;42.83
64679;BME280;51094;53.864;27.676;2022-08-04T15:39:14;99526.25;;;28.45;43.58
64679;BME280;51094;53.864;27.676;2022-08-04T15:45:02;99526.28;;;28.38;44.00
64679;BME280;51094;53.864;27.676;2022-08-04T15:47:30;99414.91;;;27.69;42.86
64679;BME280;51094;53.864;27.676;2022-08-04T15:50:08;99536.78;;;28.40;44.36
64679;BME280;51094;53.864;27.676;2022-08-04T15:55:40;99430.78;;;27.51;44.12
64679;BME280;51094;53.864;27.676;2022-08-04T15:58:10;99510.38;;;27.80;45.02
64679;BME280;51094;53.864;27.676;2022-08-04T16:16:43;99550.28;;;27.75;45.35
64679;BME280;51094;53.864;27.676;2022-08-04T16:22:02;99316.66;;;26.24;46.52
64679;BME280;51094;53.864;27.676;2022-08-04T16:24:40;99551.16;;;27.56;47.09
64679;BME280;51094;53.864;27.676;2022-08-04T16:27:11;99513.47;;;27.26;47.47
64679;BME280;51094;53.864;27.676;2022-08-04T16:29:43;99560.63;;;27.45;48.32
64679;BME280;51094;53.864;27.676;2022-08-04T16:34:44;99534.47;;;26.70;49.49
64679;BME280;51094;53.864;27.676;2022-08-04T16:37:41;99576.53;;;27.21;48.91
64679;BME280;51094;53.864;27.676;2022-08-04T16:40:30;99561.75;;;27.18;49.27
64679;BME280;51094;53.864;27.676;2022-08-04T16:45:59;99566.28;;;27.04;50.49
64679;BME280;51094;53.864;27.676;2022-08-04T16:48:28;99583.53;;;27.02;50.17
64679;BME280;51094;53.864;27.676;2022-08-04T16:51:01;99487.69;;;26.34;50.21
64679;BME280;51094;53.864;27.676;2022-08-04T16:53:36;99567.28;;;26.64;50.75
64679;BME280;51094;53.864;27.676;2022-08-04T16:56:29;99571.41;;;26.73;51.23
64679;BME280;51094;53.864;27.676;2022-08-04T16:59:11;99574.25;;;26.51;51.07
64679;BME280;51094;53.864;27.676;2022-08-04T17:01:45;99326.94;;;24.94;51.55
64679;BME280;51094;53.864;27.676;2022-08-04T17:04:13;99509.53;;;26.03;52.36
64679;BME280;51094;53.864;27.676;2022-08-04T17:06:44;99569.28;;;26.29;52.63
64679;BME280;51094;53.864;27.676;2022-08-04T17:09:15;99466.84;;;25.64;52.79
64679;BME280;51094;53.864;27.676;2022-08-04T17:11:46;99542.75;;;26.01;52.87
64679;BME280;51094;53.864;27.676;2022-08-04T17:14:28;99552.00;;;25.98;52.92
64679;BME280;51094;53.864;27.676;2022-08-04T17:17:00;99576.41;;;26.15;53.35
64679;BME280;51094;53.864;27.676;2022-08-04T17:19:34;99545.41;;;25.94;53.20
64679;BME280;51094;53.864;27.676;2022-08-04T17:22:04;99578.63;;;26.05;53.59
64679;BME280;51094;53.864;27.676;2022-08-04T17:24:35;99576.38;;;26.02;54.65
64679;BME280;51094;53.864;27.676;2022-08-04T17:27:04;99531.56;;;25.64;54.21
64679;BME280;51094;53.864;27.676;2022-08-04T17:29:57;99580.25;;;25.93;54.41
64679;BME280;51094;53.864;27.676;2022-08-04T17:32:23;99581.66;;;25.89;54.21
64679;BME280;51094;53.864;27.676;2022-08-04T17:34:53;99318.56;;;24.21;54.65
64679;BME280;51094;53.864;27.676;2022-08-04T17:37:20;99589.81;;;25.80;54.38
64679;BME280;51094;53.864;27.676;2022-08-04T17:40:10;99523.84;;;25.35;54.91